Time;durP1;ratioP1;P1;durP2;ratioP2;P2;SDS_P1;SDS_P2;PMS_P1;PMS_P2;Temp;Humidity;BMP_temperature;BMP_pressure;BME280_temperature;BME280_humidity;BME280_pressure;Samples;Min_cycle;Max_cycle;Signal;HPM_P1;HPM_P2
2023/07/22 00:00:15;;;;;;;5.07;2.97;;;;;;;28.25;42.23;99232.66;4500718;31;33504;-61
2023/07/22 00:02:43;;;;;;;5.10;3.20;;;;;;;28.23;42.21;99219.22;4499270;31;33890;-61
2023/07/22 00:05:11;;;;;;;6.05;3.15;;;;;;;28.23;42.15;99227.44;4500512;31;33911;-62
2023/07/22 00:07:40;;;;;;;5.70;3.60;;;;;;;28.21;42.20;99231.53;4500446;31;35007;-62
2023/07/22 00:10:09;;;;;;;5.78;3.15;;;;;;;28.19;42.23;99223.59;4499689;31;33985;-62
2023/07/22 00:12:36;;;;;;;5.15;3.05;;;;;;;28.18;42.24;99235.66;4498589;31;34229;-62
2023/07/22 00:15:06;;;;;;;5.70;3.35;;;;;;;28.16;42.28;99237.84;4500479;31;34205;-62
2023/07/22 00:17:33;;;;;;;11.73;3.45;;;;;;;28.15;42.30;99251.84;4500332;31;34087;-62
2023/07/22 00:20:03;;;;;;;5.87;3.20;;;;;;;28.14;42.28;99245.53;4500712;31;34402;-60
2023/07/22 00:22:31;;;;;;;6.30;3.30;;;;;;;28.14;42.20;99253.75;4500524;31;33829;-60
2023/07/22 00:25:03;;;;;;;4.95;3.42;;;;;;;28.12;42.21;99241.41;4500262;31;34751;-59
2023/07/22 00:27:30;;;;;;;6.20;2.92;;;;;;;28.10;42.13;99236.19;4500559;31;33748;-62
2023/07/22 00:29:58;;;;;;;7.72;3.10;;;;;;;28.09;42.14;99236.47;4500154;31;33300;-61
2023/07/22 00:32:26;;;;;;;5.90;3.25;;;;;;;28.08;42.15;99238.41;4500328;31;34251;-59
2023/07/22 00:34:53;;;;;;;7.80;3.17;;;;;;;28.07;42.13;99238.66;4500375;31;34040;-62
2023/07/22 00:37:21;;;;;;;6.87;3.00;;;;;;;28.04;42.10;99225.50;4500453;31;33839;-59
2023/07/22 00:39:49;;;;;;;7.15;3.67;;;;;;;28.02;42.08;99223.00;4500401;31;33513;-62
2023/07/22 00:42:16;;;;;;;7.20;3.22;;;;;;;28.02;42.16;99220.25;4500698;31;33909;-60
2023/07/22 00:44:44;;;;;;;7.37;2.97;;;;;;;28.00;42.17;99222.47;4498873;31;33888;-62
2023/07/22 00:47:11;;;;;;;5.57;3.22;;;;;;;27.99;42.21;99217.25;4500167;31;34272;-60
2023/07/22 00:49:39;;;;;;;8.20;3.25;;;;;;;27.97;42.24;99228.47;4499098;31;33820;-62
2023/07/22 00:52:07;;;;;;;6.80;3.25;;;;;;;27.98;42.20;99235.62;4499002;31;34561;-62
2023/07/22 00:54:34;;;;;;;7.68;3.40;;;;;;;27.96;42.16;99246.03;4500509;31;34782;-62
2023/07/22 00:57:02;;;;;;;6.07;3.17;;;;;;;27.95;42.14;99253.44;4500201;31;33748;-62
2023/07/22 00:59:29;;;;;;;5.97;3.53;;;;;;;27.94;42.21;99264.69;4500323;31;34175;-62
2023/07/22 01:01:57;;;;;;;6.55;3.25;;;;;;;27.92;42.35;99273.16;4498979;31;34741;-62
2023/07/22 01:04:25;;;;;;;11.90;3.35;;;;;;;27.91;42.33;99271.53;4495539;31;34434;-62
2023/07/22 01:06:56;;;;;;;8.10;3.45;;;;;;;27.90;42.34;99278.09;4498693;31;34221;-62
2023/07/22 01:09:24;;;;;;;9.48;3.50;;;;;;;27.91;42.33;99287.16;4490300;31;34378;-62
2023/07/22 01:11:53;;;;;;;3.95;2.50;;;;;;;27.89;42.38;99287.44;4494879;31;33843;-58
2023/07/22 01:14:20;;;;;;;6.85;2.97;;;;;;;27.89;42.32;99281.12;4484118;31;33738;-61
2023/07/22 01:16:48;;;;;;;6.18;3.05;;;;;;;27.87;42.33;99277.81;4489789;31;34768;-60
2023/07/22 01:19:15;;;;;;;5.70;3.30;;;;;;;27.85;42.37;99275.34;4498854;31;34352;-59
2023/07/22 01:21:43;;;;;;;8.27;3.05;;;;;;;27.82;42.44;99289.59;4485505;31;34644;-60
2023/07/22 01:24:11;;;;;;;7.53;2.70;;;;;;;27.81;42.40;99289.88;4499004;31;34025;-60
2023/07/22 01:26:38;;;;;;;6.32;3.53;;;;;;;27.80;42.46;99300.00;4498737;31;34729;-60
2023/07/22 01:29:06;;;;;;;7.93;3.40;;;;;;;27.80;42.51;99301.94;4493618;31;33322;-61
2023/07/22 01:31:35;;;;;;;7.35;3.00;;;;;;;27.75;42.57;99302.72;4484061;32;33843;-60
2023/07/22 01:34:04;;;;;;;5.87;3.08;;;;;;;27.72;42.64;99292.28;4482923;32;33703;-60
2023/07/22 01:36:32;;;;;;;8.23;3.60;;;;;;;27.72;42.67;99297.78;4482827;32;34886;-59
2023/07/22 01:39:00;;;;;;;5.28;3.30;;;;;;;27.71;42.66;99301.56;4484086;32;34358;-60
2023/07/22 01:41:28;;;;;;;7.15;2.90;;;;;;;27.71;42.67;99304.31;4484090;32;33647;-60
2023/07/22 01:43:55;;;;;;;5.55;3.00;;;;;;;27.70;42.68;99308.97;4483861;32;34842;-59
2023/07/22 01:46:23;;;;;;;7.53;2.60;;;;;;;27.68;42.72;99302.91;4484003;32;34665;-62
2023/07/22 01:48:51;;;;;;;8.23;3.15;;;;;;;27.68;42.71;99316.63;4484076;32;33646;-62
2023/07/22 01:51:19;;;;;;;7.50;3.03;;;;;;;27.67;42.65;99314.16;4483832;32;33452;-62
2023/07/22 01:53:47;;;;;;;5.47;2.85;;;;;;;27.66;42.62;99323.47;4484027;32;33215;-60
2023/07/22 01:56:16;;;;;;;6.07;3.12;;;;;;;27.64;42.54;99331.94;4484078;32;34116;-62
2023/07/22 01:58:43;;;;;;;9.23;3.13;;;;;;;27.64;42.50;99329.22;4469752;32;32743;-62
2023/07/22 02:01:13;;;;;;;9.80;2.62;;;;;;;27.64;42.52;99329.22;4483862;32;34023;-58
2023/07/22 02:03:43;;;;;;;5.97;2.80;;;;;;;27.64;42.57;99333.88;4483728;32;33893;-60
2023/07/22 02:06:10;;;;;;;5.82;2.90;;;;;;;27.63;42.57;99332.22;4490755;31;34009;-60
2023/07/22 02:08:38;;;;;;;7.00;2.55;;;;;;;27.62;42.59;99330.59;4483828;32;34298;-60
2023/07/22 02:11:08;;;;;;;7.97;2.55;;;;;;;27.60;42.61;99339.06;4483513;32;33839;-59
2023/07/22 02:13:36;;;;;;;9.65;3.80;;;;;;;27.60;42.61;99340.97;4483751;32;33806;-62
2023/07/22 02:16:03;;;;;;;4.75;3.15;;;;;;;27.60;42.57;99340.97;4483531;32;33982;-60
2023/07/22 02:18:31;;;;;;;8.18;2.92;;;;;;;27.59;42.57;99351.09;4483496;32;33678;-58
2023/07/22 02:20:59;;;;;;;9.18;3.25;;;;;;;27.59;42.58;99350.28;4483593;32;33633;-60
2023/07/22 02:23:26;;;;;;;5.03;3.10;;;;;;;27.57;42.57;99358.78;4483513;32;33767;-59
2023/07/22 02:25:54;;;;;;;4.90;2.75;;;;;;;27.56;42.58;99365.38;4483263;32;34047;-58
2023/07/22 02:28:23;;;;;;;8.35;3.25;;;;;;;27.56;42.58;99359.88;4483466;32;33637;-60
2023/07/22 02:30:52;;;;;;;6.93;3.47;;;;;;;27.55;42.57;99358.22;4483255;32;34666;-60
2023/07/22 02:33:21;;;;;;;7.35;3.05;;;;;;;27.55;42.49;99355.47;4483611;32;33900;-62
2023/07/22 02:35:49;;;;;;;5.37;3.00;;;;;;;27.54;42.53;99351.09;4484228;32;34118;-59
2023/07/22 02:38:17;;;;;;;5.03;2.83;;;;;;;27.55;42.49;99354.66;4485460;32;33356;-59
2023/07/22 02:40:44;;;;;;;6.20;3.28;;;;;;;27.53;42.55;99348.62;4485245;32;34098;-60
2023/07/22 02:43:12;;;;;;;6.28;3.20;;;;;;;27.52;42.58;99360.69;4485461;32;33884;-59
2023/07/22 02:45:39;;;;;;;5.37;2.60;;;;;;;27.50;42.62;99355.44;4485263;32;34363;-60
2023/07/22 02:48:07;;;;;;;8.98;3.30;;;;;;;27.49;42.70;99367.50;4485139;32;34245;-61
2023/07/22 02:50:34;;;;;;;7.20;3.60;;;;;;;27.49;42.76;99369.41;4485366;32;34536;-58
2023/07/22 02:53:02;;;;;;;8.65;3.45;;;;;;;27.47;42.83;99372.44;4485405;32;34000;-62
2023/07/22 02:55:30;;;;;;;5.32;3.42;;;;;;;27.48;42.81;99370.50;4484014;32;33619;-62
2023/07/22 02:57:58;;;;;;;7.00;3.62;;;;;;;27.47;42.82;99366.94;4485484;32;33467;-62
2023/07/22 03:00:25;;;;;;;7.65;4.25;;;;;;;27.45;42.82;99372.66;4485183;32;34088;-62
2023/07/22 03:02:57;;;;;;;11.60;4.12;;;;;;;27.44;42.85;99372.94;4485413;32;34704;-62
2023/07/22 03:05:25;;;;;;;7.37;3.60;;;;;;;27.44;42.87;99381.97;4488733;31;34266;-62
2023/07/22 03:07:53;;;;;;;6.37;4.03;;;;;;;27.45;42.86;99382.81;4500876;31;34467;-62
2023/07/22 03:10:21;;;;;;;7.03;4.22;;;;;;;27.45;42.92;99388.28;4500998;31;34648;-61
2023/07/22 03:12:48;;;;;;;5.18;3.45;;;;;;;27.43;42.94;99385.81;4499786;31;34880;-62
2023/07/22 03:15:18;;;;;;;6.62;4.10;;;;;;;27.43;43.00;99387.75;4501003;31;34284;-62
2023/07/22 03:17:46;;;;;;;7.62;4.20;;;;;;;27.42;42.94;99383.34;4500805;31;34360;-61
2023/07/22 03:20:14;;;;;;;6.37;4.12;;;;;;;27.43;42.95;99379.53;4500974;31;33572;-62
2023/07/22 03:22:43;;;;;;;7.65;4.40;;;;;;;27.42;42.94;99383.34;4500735;31;33625;-60
2023/07/22 03:25:10;;;;;;;6.82;3.92;;;;;;;27.40;42.94;99383.59;4499544;31;34330;-62
2023/07/22 03:27:38;;;;;;;5.70;4.00;;;;;;;27.40;42.97;99386.34;4500881;31;34409;-60
2023/07/22 03:30:10;;;;;;;7.15;3.65;;;;;;;27.40;42.99;99388.25;4499498;31;33606;-60
2023/07/22 03:32:38;;;;;;;5.35;3.62;;;;;;;27.39;43.08;99384.69;4500824;31;34054;-60
2023/07/22 03:35:08;;;;;;;8.25;4.12;;;;;;;27.38;43.08;99388.53;4500763;31;34779;-59
2023/07/22 03:37:39;;;;;;;6.95;4.10;;;;;;;27.37;43.08;99383.28;4500781;31;33225;-60
2023/07/22 03:40:20;;;;;;;8.75;4.50;;;;;;;27.37;43.12;99383.28;4500695;31;34595;-59
2023/07/22 03:42:49;;;;;;;5.10;3.50;;;;;;;27.37;43.13;99383.28;4500627;31;34665;-59
2023/07/22 03:45:17;;;;;;;6.15;3.58;;;;;;;27.35;43.17;99390.97;4499765;31;34811;-60
2023/07/22 03:47:45;;;;;;;7.12;3.60;;;;;;;27.34;43.21;99394.78;4500773;31;34371;-60
2023/07/22 03:50:13;;;;;;;6.62;3.67;;;;;;;27.33;43.20;99396.72;4499302;31;33918;-60
2023/07/22 03:52:41;;;;;;;6.47;3.97;;;;;;;27.33;43.23;99393.97;4500611;31;33614;-60
2023/07/22 03:55:08;;;;;;;7.72;3.97;;;;;;;27.34;43.25;99403.00;4500665;31;34160;-60
2023/07/22 03:57:36;;;;;;;5.60;3.47;;;;;;;27.33;43.35;99404.94;4500364;31;33661;-59
2023/07/22 04:00:05;;;;;;;6.65;3.85;;;;;;;27.33;43.37;99404.09;4500692;31;33510;-58
2023/07/22 04:02:38;;;;;;;9.55;3.87;;;;;;;27.32;43.38;99407.91;4499315;31;33914;-59
2023/07/22 04:05:06;;;;;;;6.00;3.55;;;;;;;27.31;43.41;99407.09;4500406;31;34866;-60
2023/07/22 04:07:34;;;;;;;5.87;3.85;;;;;;;27.32;43.44;99407.91;4500687;31;33570;-59
2023/07/22 04:10:02;;;;;;;6.40;3.72;;;;;;;27.30;43.50;99404.63;4500370;31;33856;-60
2023/07/22 04:12:30;;;;;;;7.20;4.05;;;;;;;27.30;43.49;99399.13;4500560;31;34751;-58
2023/07/22 04:14:58;;;;;;;6.40;3.95;;;;;;;27.29;43.57;99392.84;4500517;31;34041;-60
2023/07/22 04:17:28;;;;;;;7.57;3.90;;;;;;;27.29;43.62;99397.50;4500278;31;33672;-60
2023/07/22 04:19:56;;;;;;;5.45;3.53;;;;;;;27.27;43.60;99397.75;4500400;31;34649;-60
2023/07/22 04:22:24;;;;;;;6.35;3.97;;;;;;;27.28;43.59;99393.06;4500648;31;33711;-57
2023/07/22 04:24:51;;;;;;;7.82;4.28;;;;;;;27.28;43.66;99387.59;4500308;31;34824;-60
2023/07/22 04:27:20;;;;;;;6.62;3.70;;;;;;;27.29;43.72;99389.28;4500358;31;34465;-60
2023/07/22 04:29:48;;;;;;;5.90;3.60;;;;;;;27.29;43.71;99392.84;4500326;31;33839;-58
2023/07/22 04:32:15;;;;;;;6.82;4.07;;;;;;;27.27;43.76;99389.53;4500183;31;34759;-60
2023/07/22 04:34:43;;;;;;;5.20;3.30;;;;;;;27.27;43.81;99394.16;4500399;31;33792;-60
2023/07/22 04:37:10;;;;;;;5.68;4.03;;;;;;;27.27;43.84;99399.66;4500676;31;33530;-59
2023/07/22 04:39:38;;;;;;;6.53;3.87;;;;;;;27.27;43.94;99396.91;4500292;31;34743;-59
2023/07/22 04:42:06;;;;;;;6.40;3.65;;;;;;;27.26;43.98;99395.28;4499138;31;33553;-60
2023/07/22 04:44:33;;;;;;;5.87;3.50;;;;;;;27.26;44.07;99406.22;4500471;31;34928;-57
2023/07/22 04:47:01;;;;;;;7.50;4.07;;;;;;;27.26;44.12;99409.78;4500026;31;33771;-61
2023/07/22 04:49:29;;;;;;;5.87;3.87;;;;;;;27.25;44.19;99408.13;4500366;31;33908;-60
2023/07/22 04:51:56;;;;;;;8.13;4.78;;;;;;;27.25;44.25;99402.66;4500256;31;34685;-59
2023/07/22 04:54:24;;;;;;;9.23;4.78;;;;;;;27.20;44.67;99408.09;4500052;31;34796;-59
2023/07/22 04:56:52;;;;;;;9.10;4.18;;;;;;;27.16;44.80;99420.66;4484198;31;33564;-56
2023/07/22 04:59:19;;;;;;;9.85;4.57;;;;;;;27.16;44.77;99418.75;4484439;32;33738;-59
2023/07/22 05:01:47;;;;;;;7.57;4.20;;;;;;;27.10;45.07;99424.44;4484481;32;33533;-60
2023/07/22 05:04:14;;;;;;;13.73;5.50;;;;;;;27.09;44.99;99425.50;4484638;32;34186;-60
2023/07/22 05:06:42;;;;;;;8.23;4.60;;;;;;;27.07;45.08;99428.50;4497418;31;34303;-61
2023/07/22 05:09:09;;;;;;;8.15;4.70;;;;;;;27.05;45.07;99425.19;4500020;31;34616;-58
2023/07/22 05:11:37;;;;;;;11.00;5.03;;;;;;;27.03;45.14;99421.06;4500079;31;34087;-60
2023/07/22 05:14:05;;;;;;;7.70;4.82;;;;;;;27.00;45.20;99425.16;4500030;31;34485;-61
2023/07/22 05:16:32;;;;;;;6.72;4.68;;;;;;;26.98;45.27;99435.53;4499898;31;33472;-60
2023/07/22 05:19:00;;;;;;;10.70;5.43;;;;;;;26.98;45.34;99421.84;4500047;31;34916;-60
2023/07/22 05:21:27;;;;;;;7.80;5.25;;;;;;;26.96;45.46;99427.56;4500018;31;33732;-60
2023/07/22 05:23:55;;;;;;;11.65;5.55;;;;;;;26.93;45.71;99428.09;4499886;31;34147;-59
2023/07/22 05:26:23;;;;;;;9.02;5.20;;;;;;;26.90;45.74;99433.25;4499969;31;34316;-59
2023/07/22 05:28:50;;;;;;;6.50;4.72;;;;;;;26.83;45.77;99438.94;4499938;31;33931;-60
2023/07/22 05:31:18;;;;;;;9.48;5.60;;;;;;;26.79;45.87;99440.53;4499705;31;34774;-59
2023/07/22 05:33:46;;;;;;;7.95;5.00;;;;;;;26.74;46.14;99443.22;4499982;31;34887;-59
2023/07/22 05:36:14;;;;;;;9.45;5.22;;;;;;;26.71;46.19;99443.72;4499897;31;33525;-58
2023/07/22 05:38:41;;;;;;;7.25;4.97;;;;;;;26.70;46.23;99442.91;4500107;31;33683;-61
2023/07/22 05:41:09;;;;;;;8.60;4.75;;;;;;;26.64;46.21;99441.19;4499879;31;33829;-59
2023/07/22 05:43:37;;;;;;;9.27;4.90;;;;;;;26.61;46.19;99441.69;4498593;31;33997;-59
2023/07/22 05:46:04;;;;;;;9.18;4.75;;;;;;;26.61;46.19;99441.69;4499737;31;33425;-60
2023/07/22 05:48:32;;;;;;;11.25;4.85;;;;;;;26.64;46.20;99454.06;4499874;31;33802;-60
2023/07/22 05:50:59;;;;;;;6.65;4.93;;;;;;;26.62;46.42;99451.56;4499897;31;33897;-60
2023/07/22 05:53:27;;;;;;;8.43;4.90;;;;;;;26.62;46.37;99457.03;4498563;31;33844;-60
2023/07/22 05:55:55;;;;;;;8.90;4.35;;;;;;;26.64;46.52;99463.09;4499958;31;33627;-60
2023/07/22 05:58:23;;;;;;;7.82;4.45;;;;;;;26.66;46.53;99466.38;4499626;31;33719;-59
2023/07/22 06:00:51;;;;;;;8.15;4.90;;;;;;;26.63;46.43;99472.38;4494308;31;34415;-61
2023/07/22 06:03:20;;;;;;;7.18;4.65;;;;;;;26.62;46.35;99473.44;4498580;31;34180;-59
2023/07/22 06:05:48;;;;;;;7.82;4.57;;;;;;;26.59;46.37;99467.69;4492079;31;33150;-59
2023/07/22 06:08:16;;;;;;;8.90;4.75;;;;;;;26.62;46.38;99467.16;4482707;32;33987;-57
2023/07/22 06:10:43;;;;;;;8.45;4.25;;;;;;;26.57;46.46;99464.34;4483755;32;33971;-59
2023/07/22 06:13:11;;;;;;;8.10;4.53;;;;;;;26.57;46.41;99469.81;4483482;32;34686;-57
2023/07/22 06:15:38;;;;;;;11.88;4.90;;;;;;;26.53;46.48;99464.03;4483624;32;33639;-60
2023/07/22 06:18:08;;;;;;;9.18;5.03;;;;;;;26.55;46.47;99467.34;4483580;32;33935;-60
2023/07/22 06:20:36;;;;;;;7.93;4.82;;;;;;;26.56;46.62;99459.97;4483483;32;33879;-60
2023/07/22 06:23:03;;;;;;;8.35;4.65;;;;;;;26.56;46.85;99449.84;4483455;32;33967;-61
2023/07/22 06:25:31;;;;;;;7.10;4.62;;;;;;;26.53;46.71;99455.00;4483472;32;33686;-59
2023/07/22 06:27:59;;;;;;;8.70;4.32;;;;;;;26.52;46.66;99456.91;4482104;32;34544;-60
2023/07/22 06:30:27;;;;;;;6.53;4.47;;;;;;;26.55;46.44;99453.69;4483223;32;34251;-62
2023/07/22 06:32:55;;;;;;;7.93;4.20;;;;;;;26.52;46.44;99459.66;4468886;32;34397;-59
2023/07/22 06:35:22;;;;;;;6.80;4.18;;;;;;;26.50;46.54;99461.81;4483066;32;33643;-59
2023/07/22 06:37:50;;;;;;;8.32;4.32;;;;;;;26.50;46.65;99456.34;4483272;32;33854;-59
2023/07/22 06:40:17;;;;;;;9.20;4.68;;;;;;;26.52;46.64;99462.38;4483001;32;33675;-62
2023/07/22 06:42:45;;;;;;;8.80;3.97;;;;;;;26.54;46.50;99467.63;4482595;32;34164;-61
2023/07/22 06:45:13;;;;;;;6.82;4.50;;;;;;;26.53;46.66;99471.41;4468690;32;33678;-61
2023/07/22 06:47:40;;;;;;;9.40;4.82;;;;;;;26.53;46.70;99468.69;4483212;32;33954;-62
2023/07/22 06:50:08;;;;;;;8.00;4.40;;;;;;;26.47;46.47;99467.81;4482880;32;33882;-59
2023/07/22 06:52:36;;;;;;;8.05;4.53;;;;;;;26.53;46.16;99469.50;4483344;32;34127;-59
2023/07/22 06:55:04;;;;;;;7.15;4.45;;;;;;;26.50;46.29;99467.31;4483125;32;33197;-57
2023/07/22 06:57:32;;;;;;;6.97;4.53;;;;;;;26.48;46.31;99471.34;4480492;32;34131;-61
2023/07/22 07:00:00;;;;;;;6.87;4.07;;;;;;;26.47;46.49;99467.81;4453287;32;34885;-60
2023/07/22 07:02:28;;;;;;;7.25;4.10;;;;;;;26.55;46.48;99478.31;4467218;32;34153;-59
2023/07/22 07:04:56;;;;;;;12.95;4.10;;;;;;;26.56;46.56;99476.38;4468946;32;33200;-60
2023/07/22 07:07:23;;;;;;;6.70;3.92;;;;;;;26.55;46.72;99488.44;4482856;32;33451;-57
2023/07/22 07:09:51;;;;;;;15.00;3.87;;;;;;;26.54;46.67;99486.78;4482009;32;33904;-59
2023/07/22 07:12:18;;;;;;;7.12;3.67;;;;;;;26.58;46.56;99486.00;4481911;32;35121;-59
2023/07/22 07:14:46;;;;;;;6.47;3.60;;;;;;;26.62;46.50;99486.31;4482366;32;34434;-59
2023/07/22 07:17:14;;;;;;;7.25;4.30;;;;;;;26.67;46.41;99489.09;4482665;32;33885;-60
2023/07/22 07:19:41;;;;;;;5.82;3.65;;;;;;;26.71;46.31;99490.25;4484531;32;34126;-61
2023/07/22 07:22:09;;;;;;;5.93;3.55;;;;;;;26.76;46.20;99492.22;4485083;32;34700;-60
2023/07/22 07:24:36;;;;;;;6.15;4.00;;;;;;;26.79;46.11;99497.19;4483615;32;33046;-59
2023/07/22 07:27:04;;;;;;;7.55;3.75;;;;;;;26.83;45.99;99493.69;4484684;32;33712;-61
2023/07/22 07:29:32;;;;;;;6.82;3.60;;;;;;;26.87;45.91;99504.97;4485095;32;34009;-58
2023/07/22 07:32:19;;;;;;;7.35;3.28;;;;;;;26.91;45.80;99514.31;4484745;32;34836;-56
2023/07/22 07:34:47;;;;;;;5.10;3.25;;;;;;;26.95;45.59;99518.16;4484702;32;34420;-62
2023/07/22 07:37:14;;;;;;;6.62;3.17;;;;;;;26.99;45.46;99518.47;4484893;32;33840;-62
2023/07/22 07:39:42;;;;;;;5.50;3.30;;;;;;;27.01;45.40;99514.41;4484723;32;35161;-62
2023/07/22 07:42:10;;;;;;;11.60;3.87;;;;;;;27.05;45.21;99521.03;4481822;32;33691;-59
2023/07/22 07:44:37;;;;;;;5.55;3.60;;;;;;;27.08;45.14;99528.75;4484867;32;33282;-62
2023/07/22 07:47:05;;;;;;;7.15;3.47;;;;;;;27.13;45.04;99530.72;4484833;32;33909;-60
2023/07/22 07:49:33;;;;;;;5.22;3.35;;;;;;;27.14;44.80;99533.22;4484726;32;34654;-61
2023/07/22 07:52:02;;;;;;;5.60;3.30;;;;;;;27.17;44.69;99540.06;4485229;32;34084;-62
2023/07/22 07:54:30;;;;;;;7.87;3.62;;;;;;;27.18;44.59;99537.06;4484913;32;33511;-62
2023/07/22 07:56:59;;;;;;;9.05;3.67;;;;;;;27.23;44.45;99546.44;4470809;32;34424;-59
2023/07/22 07:59:27;;;;;;;6.47;3.53;;;;;;;27.25;44.29;99547.00;4484314;32;33560;-62
2023/07/22 08:01:54;;;;;;;7.07;3.75;;;;;;;27.26;44.15;99541.28;4484713;32;34375;-62
2023/07/22 08:04:23;;;;;;;8.75;3.60;;;;;;;27.27;44.04;99545.66;4484670;32;33655;-57
2023/07/22 08:06:50;;;;;;;6.05;3.08;;;;;;;27.31;44.08;99543.22;4484399;32;34876;-57
2023/07/22 08:09:21;;;;;;;5.87;3.50;;;;;;;27.33;44.14;99543.81;4484907;32;33903;-59
2023/07/22 08:11:49;;;;;;;5.80;3.80;;;;;;;27.35;44.12;99552.59;4484805;32;34878;-62
2023/07/22 08:14:18;;;;;;;8.88;3.28;;;;;;;27.38;44.16;99554.84;4484454;32;33224;-63
2023/07/22 08:16:45;;;;;;;5.37;3.40;;;;;;;27.40;44.21;99564.44;4484610;32;33759;-58
2023/07/22 08:19:13;;;;;;;5.12;2.92;;;;;;;27.44;44.22;99567.47;4484632;32;34810;-62
2023/07/22 08:21:40;;;;;;;8.10;3.37;;;;;;;27.45;44.25;99574.63;4484389;32;34137;-56
2023/07/22 08:24:08;;;;;;;5.87;3.08;;;;;;;27.49;44.21;99577.66;4484739;32;34270;-61
2023/07/22 08:26:36;;;;;;;6.05;3.37;;;;;;;27.51;44.22;99581.78;4470715;32;33556;-62
2023/07/22 08:29:04;;;;;;;6.20;3.42;;;;;;;27.53;44.22;99589.78;4484468;32;33426;-62
2023/07/22 08:31:32;;;;;;;5.97;3.62;;;;;;;27.56;44.18;99601.03;4491569;31;34135;-64
2023/07/22 08:33:59;;;;;;;6.70;3.90;;;;;;;27.58;44.13;99603.53;4500363;31;34636;-62
2023/07/22 08:36:27;;;;;;;5.50;3.20;;;;;;;27.59;44.10;99606.00;4500538;31;33362;-62
2023/07/22 08:38:55;;;;;;;6.60;3.20;;;;;;;27.62;43.93;99613.72;4500301;31;34711;-63
2023/07/22 08:41:25;;;;;;;7.20;3.60;;;;;;;27.63;43.83;99620.84;4500340;31;34847;-61
2023/07/22 08:43:52;;;;;;;4.93;3.15;;;;;;;27.63;43.74;99623.56;4500222;31;34394;-62
2023/07/22 08:46:20;;;;;;;9.00;3.40;;;;;;;27.66;43.49;99620.34;4486084;31;33839;-61
2023/07/22 08:48:49;;;;;;;6.12;3.47;;;;;;;27.67;43.40;99616.50;4491434;31;34478;-62
2023/07/22 08:51:17;;;;;;;6.47;3.58;;;;;;;27.68;43.38;99620.87;4485804;31;34789;-57
2023/07/22 08:53:45;;;;;;;6.07;3.40;;;;;;;27.68;43.22;99620.06;4500263;31;34032;-56
2023/07/22 08:56:31;;;;;;;4.87;3.05;;;;;;;27.69;43.14;99611.56;4484493;32;34670;-58
2023/07/22 08:58:59;;;;;;;5.72;3.60;;;;;;;27.70;42.49;99623.38;4470193;32;35373;-56
2023/07/22 09:01:26;;;;;;;5.78;3.33;;;;;;;27.70;42.42;99624.22;4470301;32;33923;-55
2023/07/22 09:03:56;;;;;;;5.62;3.33;;;;;;;27.72;42.37;99629.47;4484195;32;33652;-56
2023/07/22 09:06:24;;;;;;;6.60;3.20;;;;;;;27.73;42.27;99627.53;4495537;31;33967;-57
2023/07/22 09:08:53;;;;;;;4.32;3.00;;;;;;;27.73;42.15;99631.09;4500071;31;34320;-62
2023/07/22 09:11:21;;;;;;;4.53;2.87;;;;;;;27.75;41.82;99630.88;4486136;31;34791;-62
2023/07/22 09:13:48;;;;;;;7.78;3.12;;;;;;;27.75;41.31;99630.88;4500209;31;33630;-63
2023/07/22 09:16:16;;;;;;;5.85;2.85;;;;;;;27.74;41.19;99630.00;4480476;31;34514;-60
2023/07/22 09:18:43;;;;;;;4.90;3.12;;;;;;;27.74;40.85;99620.97;4485914;31;34096;-62
2023/07/22 09:21:11;;;;;;;4.45;2.70;;;;;;;27.73;40.64;99628.37;4499994;31;35294;-63
2023/07/22 09:23:38;;;;;;;5.05;3.00;;;;;;;27.72;40.65;99629.47;4500311;31;33436;-62
2023/07/22 09:26:13;;;;;;;7.30;2.92;;;;;;;27.74;40.64;99627.28;4500031;31;34966;-62
2023/07/22 09:28:54;;;;;;;4.30;2.83;;;;;;;27.76;40.47;99630.59;4498817;31;33918;-63
2023/07/22 09:31:22;;;;;;;4.25;2.60;;;;;;;27.77;40.74;99628.69;4486104;31;34413;-64
2023/07/22 09:33:50;;;;;;;4.60;2.90;;;;;;;27.77;40.94;99623.19;4500066;31;34468;-62
2023/07/22 09:36:17;;;;;;;5.90;2.75;;;;;;;27.76;40.95;99627.03;4499752;31;34822;-58
2023/07/22 09:38:58;;;;;;;5.72;3.28;;;;;;;27.77;41.00;99624.03;4499848;31;33842;-59
2023/07/22 09:41:30;;;;;;;5.20;2.70;;;;;;;27.78;40.95;99619.34;4498799;31;33685;-61
2023/07/22 09:44:03;;;;;;;6.50;3.05;;;;;;;27.79;40.99;99624.56;4499524;31;34094;-59
2023/07/22 09:46:32;;;;;;;5.18;2.80;;;;;;;27.80;40.90;99620.78;4485849;31;34558;-60
2023/07/22 09:49:09;;;;;;;5.28;2.90;;;;;;;27.81;40.91;99625.16;4499392;31;34038;-59
2023/07/22 09:51:39;;;;;;;5.87;2.70;;;;;;;27.84;40.89;99621.91;4499582;31;34718;-60
2023/07/22 09:54:29;;;;;;;4.55;2.60;;;;;;;27.83;40.97;99622.16;4487694;31;34252;-61
2023/07/22 09:56:56;;;;;;;5.65;3.08;;;;;;;27.86;40.67;99621.63;4499501;31;33788;-62
2023/07/22 09:59:24;;;;;;;5.28;2.75;;;;;;;27.85;40.62;99618.06;4484761;31;33528;-59
2023/07/22 10:01:53;;;;;;;5.00;2.30;;;;;;;27.85;40.71;99623.56;4499528;31;34128;-59
2023/07/22 10:04:23;;;;;;;7.12;2.85;;;;;;;27.86;40.86;99608.75;4499557;31;33542;-64
2023/07/22 10:06:52;;;;;;;5.22;2.53;;;;;;;27.87;40.61;99612.31;4499507;31;34284;-62
2023/07/22 10:09:20;;;;;;;6.57;3.40;;;;;;;27.88;40.54;99617.53;4472284;31;34952;-62
2023/07/22 10:11:47;;;;;;;4.62;2.90;;;;;;;27.88;40.34;99624.94;4485344;31;33964;-62
2023/07/22 10:14:15;;;;;;;4.60;3.03;;;;;;;27.89;39.83;99618.38;4499416;31;34426;-62
2023/07/22 10:16:42;;;;;;;5.05;2.80;;;;;;;27.90;39.58;99631.00;4472263;31;33893;-61
2023/07/22 10:19:10;;;;;;;5.12;2.83;;;;;;;27.90;39.72;99628.25;4485202;31;33976;-62
2023/07/22 10:21:38;;;;;;;7.60;2.97;;;;;;;27.91;39.96;99630.72;4477567;31;34678;-61
2023/07/22 10:24:05;;;;;;;4.53;2.50;;;;;;;27.93;39.96;99630.47;4471046;32;33609;-61
2023/07/22 10:26:33;;;;;;;4.32;2.62;;;;;;;27.93;39.75;99642.28;4467286;32;33771;-57
2023/07/22 10:29:14;;;;;;;6.12;3.05;;;;;;;27.95;39.66;99633.78;4486087;31;34530;-57
2023/07/22 10:31:42;;;;;;;5.23;2.97;;;;;;;27.98;39.76;99633.28;4498830;31;34137;-59
2023/07/22 10:34:11;;;;;;;4.82;2.67;;;;;;;27.99;39.94;99637.66;4484834;31;33815;-59
2023/07/22 10:36:39;;;;;;;6.25;2.53;;;;;;;27.99;39.83;99631.34;4497629;31;34373;-56
2023/07/22 10:39:07;;;;;;;3.80;2.50;;;;;;;27.96;39.87;99630.78;4498656;31;34842;-59
2023/07/22 10:41:37;;;;;;;4.62;2.80;;;;;;;28.00;40.09;99635.75;4498312;31;34619;-58
2023/07/22 10:44:06;;;;;;;4.35;2.65;;;;;;;28.02;40.09;99633.56;4484728;31;34297;-61
2023/07/22 10:46:43;;;;;;;6.90;2.75;;;;;;;28.07;40.27;99618.00;4484165;31;33924;-62
2023/07/22 10:49:12;;;;;;;5.10;2.87;;;;;;;28.05;39.77;99624.81;4485123;31;34436;-59
2023/07/22 10:51:40;;;;;;;6.25;2.53;;;;;;;28.07;39.56;99628.09;4484456;31;33727;-58
2023/07/22 10:54:12;;;;;;;6.35;2.30;;;;;;;28.08;39.29;99622.38;4500065;31;34363;-58
2023/07/22 10:56:43;;;;;;;4.60;2.45;;;;;;;28.08;39.10;99614.16;4500785;31;34088;-59
2023/07/22 10:59:11;;;;;;;4.72;2.35;;;;;;;28.09;39.21;99618.53;4500897;31;33546;-56
2023/07/22 11:01:39;;;;;;;4.40;2.30;;;;;;;28.10;39.16;99622.94;4486551;31;34418;-54
2023/07/22 11:04:15;;;;;;;4.87;2.47;;;;;;;28.09;38.90;99624.03;4500646;31;33700;-52
2023/07/22 11:06:48;;;;;;;4.62;2.35;;;;;;;28.12;38.73;99619.91;4500383;31;33604;-57
2023/07/22 11:09:37;;;;;;;3.90;2.17;;;;;;;28.12;38.68;99617.19;4500750;31;33997;-56
2023/07/22 11:12:11;;;;;;;3.60;2.17;;;;;;;28.15;38.23;99619.41;4500462;31;34967;-54
2023/07/22 11:14:51;;;;;;;6.18;2.87;;;;;;;28.14;38.64;99612.28;4500652;31;34276;-52
2023/07/22 11:17:29;;;;;;;3.62;2.05;;;;;;;28.17;38.56;99609.84;4500576;31;34602;-59
2023/07/22 11:19:59;;;;;;;4.15;2.60;;;;;;;28.19;38.74;99615.06;4500797;31;34773;-54
2023/07/22 11:22:30;;;;;;;4.37;2.40;;;;;;;28.18;39.13;99606.00;4500561;31;34237;-62
2023/07/22 11:24:58;;;;;;;4.15;2.25;;;;;;;28.17;39.43;99612.59;4497109;31;33492;-60
2023/07/22 11:27:26;;;;;;;3.53;2.25;;;;;;;28.17;39.66;99612.59;4486330;31;34568;-63
2023/07/22 11:29:53;;;;;;;3.10;2.08;;;;;;;28.17;39.79;99611.75;4499375;31;34764;-60
2023/07/22 11:32:22;;;;;;;5.18;2.42;;;;;;;28.16;39.84;99608.16;4500278;31;33728;-61
2023/07/22 11:34:52;;;;;;;4.75;2.22;;;;;;;28.16;39.97;99605.41;4500925;31;33489;-62
2023/07/22 11:37:20;;;;;;;5.12;2.30;;;;;;;28.16;40.06;99599.94;4501015;31;34716;-60
2023/07/22 11:39:48;;;;;;;4.55;2.40;;;;;;;28.18;40.19;99607.91;4500737;31;34835;-62